sensor_id;sensor_type;location;lat;lon;timestamp;P1;durP1;ratioP1;P2;durP2;ratioP2
50988;SDS011;37008;52.210;21.112;2023-05-10T00:00:31;12.55;;;6.82;;
50988;SDS011;37008;52.210;21.112;2023-05-10T00:02:57;13.55;;;6.80;;
50988;SDS011;37008;52.210;21.112;2023-05-10T00:05:22;12.70;;;7.20;;
50988;SDS011;37008;52.210;21.112;2023-05-10T00:07:48;18.00;;;7.30;;
50988;SDS011;37008;52.210;21.112;2023-05-10T00:10:13;14.02;;;6.10;;
50988;SDS011;37008;52.210;21.112;2023-05-10T00:12:39;11.38;;;6.00;;
50988;SDS011;37008;52.210;21.112;2023-05-10T00:15:05;11.10;;;6.65;;
50988;SDS011;37008;52.210;21.112;2023-05-10T00:17:31;10.93;;;6.75;;
50988;SDS011;37008;52.210;21.112;2023-05-10T00:19:56;13.88;;;6.40;;
50988;SDS011;37008;52.210;21.112;2023-05-10T00:22:22;12.75;;;6.40;;
50988;SDS011;37008;52.210;21.112;2023-05-10T00:24:48;12.13;;;6.22;;
50988;SDS011;37008;52.210;21.112;2023-05-10T00:27:13;10.38;;;6.00;;
50988;SDS011;37008;52.210;21.112;2023-05-10T00:29:39;10.57;;;6.65;;
50988;SDS011;37008;52.210;21.112;2023-05-10T00:32:05;10.90;;;6.30;;
50988;SDS011;37008;52.210;21.112;2023-05-10T00:34:31;8.70;;;5.72;;
50988;SDS011;37008;52.210;21.112;2023-05-10T00:36:56;9.77;;;6.32;;
50988;SDS011;37008;52.210;21.112;2023-05-10T00:39:22;14.48;;;6.40;;
50988;SDS011;37008;52.210;21.112;2023-05-10T00:41:47;8.65;;;6.30;;
50988;SDS011;37008;52.210;21.112;2023-05-10T00:44:13;8.73;;;6.13;;
50988;SDS011;37008;52.210;21.112;2023-05-10T00:46:39;9.85;;;6.15;;
50988;SDS011;37008;52.210;21.112;2023-05-10T00:49:04;9.65;;;6.35;;
50988;SDS011;37008;52.210;21.112;2023-05-10T00:51:31;12.75;;;5.75;;
50988;SDS011;37008;52.210;21.112;2023-05-10T00:53:56;12.45;;;6.07;;
50988;SDS011;37008;52.210;21.112;2023-05-10T00:56:23;11.73;;;6.32;;
50988;SDS011;37008;52.210;21.112;2023-05-10T00:58:50;9.52;;;5.85;;
50988;SDS011;37008;52.210;21.112;2023-05-10T01:01:16;10.13;;;6.07;;
50988;SDS011;37008;52.210;21.112;2023-05-10T01:03:42;10.02;;;5.43;;
50988;SDS011;37008;52.210;21.112;2023-05-10T01:06:08;9.95;;;5.28;;
50988;SDS011;37008;52.210;21.112;2023-05-10T01:08:35;11.10;;;6.05;;
50988;SDS011;37008;52.210;21.112;2023-05-10T01:11:01;10.95;;;5.70;;
50988;SDS011;37008;52.210;21.112;2023-05-10T01:15:57;10.45;;;5.72;;
50988;SDS011;37008;52.210;21.112;2023-05-10T01:18:24;11.55;;;5.28;;
50988;SDS011;37008;52.210;21.112;2023-05-10T01:20:55;9.60;;;5.70;;
50988;SDS011;37008;52.210;21.112;2023-05-10T01:23:36;10.82;;;4.75;;
50988;SDS011;37008;52.210;21.112;2023-05-10T01:35:16;9.43;;;4.97;;
50988;SDS011;37008;52.210;21.112;2023-05-10T01:38:21;8.57;;;4.45;;
50988;SDS011;37008;52.210;21.112;2023-05-10T01:43:57;10.27;;;5.03;;
50988;SDS011;37008;52.210;21.112;2023-05-10T01:46:40;8.85;;;5.20;;
50988;SDS011;37008;52.210;21.112;2023-05-10T01:49:15;7.22;;;4.95;;
50988;SDS011;37008;52.210;21.112;2023-05-10T01:51:51;7.68;;;4.63;;
50988;SDS011;37008;52.210;21.112;2023-05-10T01:54:20;9.20;;;4.78;;
50988;SDS011;37008;52.210;21.112;2023-05-10T01:56:52;7.18;;;4.88;;
50988;SDS011;37008;52.210;21.112;2023-05-10T01:59:23;7.93;;;4.97;;
50988;SDS011;37008;52.210;21.112;2023-05-10T02:01:54;11.20;;;5.65;;
50988;SDS011;37008;52.210;21.112;2023-05-10T02:04:24;10.30;;;5.13;;
50988;SDS011;37008;52.210;21.112;2023-05-10T02:06:51;9.43;;;4.72;;
50988;SDS011;37008;52.210;21.112;2023-05-10T02:09:17;7.88;;;5.05;;
50988;SDS011;37008;52.210;21.112;2023-05-10T02:11:45;12.50;;;5.28;;
50988;SDS011;37008;52.210;21.112;2023-05-10T02:14:12;9.60;;;5.57;;
50988;SDS011;37008;52.210;21.112;2023-05-10T02:16:40;9.00;;;4.82;;
50988;SDS011;37008;52.210;21.112;2023-05-10T02:19:07;10.93;;;5.10;;
50988;SDS011;37008;52.210;21.112;2023-05-10T02:21:33;7.72;;;5.03;;
50988;SDS011;37008;52.210;21.112;2023-05-10T02:24:01;7.35;;;4.57;;
50988;SDS011;37008;52.210;21.112;2023-05-10T02:26:28;8.15;;;4.80;;
50988;SDS011;37008;52.210;21.112;2023-05-10T02:28:54;9.02;;;4.82;;
50988;SDS011;37008;52.210;21.112;2023-05-10T02:31:22;8.52;;;4.90;;
50988;SDS011;37008;52.210;21.112;2023-05-10T02:33:48;7.97;;;5.15;;
50988;SDS011;37008;52.210;21.112;2023-05-10T02:36:15;9.45;;;4.95;;
50988;SDS011;37008;52.210;21.112;2023-05-10T02:38:42;11.10;;;4.93;;
50988;SDS011;37008;52.210;21.112;2023-05-10T02:41:09;9.63;;;4.95;;
50988;SDS011;37008;52.210;21.112;2023-05-10T02:43:36;16.02;;;5.45;;
50988;SDS011;37008;52.210;21.112;2023-05-10T02:46:05;8.15;;;4.93;;
50988;SDS011;37008;52.210;21.112;2023-05-10T02:48:30;9.20;;;4.97;;
50988;SDS011;37008;52.210;21.112;2023-05-10T02:50:58;12.65;;;5.43;;
50988;SDS011;37008;52.210;21.112;2023-05-10T02:53:33;9.98;;;5.15;;
50988;SDS011;37008;52.210;21.112;2023-05-10T02:56:01;8.98;;;4.88;;
50988;SDS011;37008;52.210;21.112;2023-05-10T02:58:32;7.82;;;4.63;;
50988;SDS011;37008;52.210;21.112;2023-05-10T03:00:57;12.68;;;5.00;;
50988;SDS011;37008;52.210;21.112;2023-05-10T03:03:24;10.25;;;4.70;;
50988;SDS011;37008;52.210;21.112;2023-05-10T03:05:50;9.88;;;5.00;;
50988;SDS011;37008;52.210;21.112;2023-05-10T03:08:15;8.88;;;5.15;;
50988;SDS011;37008;52.210;21.112;2023-05-10T03:10:46;8.07;;;4.47;;
50988;SDS011;37008;52.210;21.112;2023-05-10T03:13:29;8.20;;;5.13;;
50988;SDS011;37008;52.210;21.112;2023-05-10T03:16:10;12.82;;;5.55;;
50988;SDS011;37008;52.210;21.112;2023-05-10T03:21:11;10.43;;;5.00;;
50988;SDS011;37008;52.210;21.112;2023-05-10T03:23:43;11.30;;;5.38;;
50988;SDS011;37008;52.210;21.112;2023-05-10T03:26:21;10.27;;;5.07;;
50988;SDS011;37008;52.210;21.112;2023-05-10T03:28:51;9.43;;;5.35;;
50988;SDS011;37008;52.210;21.112;2023-05-10T03:31:18;9.05;;;5.05;;
50988;SDS011;37008;52.210;21.112;2023-05-10T03:33:50;9.23;;;4.65;;
50988;SDS011;37008;52.210;21.112;2023-05-10T03:36:17;11.38;;;5.15;;
50988;SDS011;37008;52.210;21.112;2023-05-10T03:38:43;6.88;;;4.70;;
50988;SDS011;37008;52.210;21.112;2023-05-10T03:41:08;14.50;;;4.43;;
50988;SDS011;37008;52.210;21.112;2023-05-10T03:43:34;7.10;;;4.57;;
50988;SDS011;37008;52.210;21.112;2023-05-10T03:46:03;7.22;;;4.78;;
50988;SDS011;37008;52.210;21.112;2023-05-10T03:48:29;9.35;;;4.65;;
50988;SDS011;37008;52.210;21.112;2023-05-10T03:50:55;7.95;;;4.55;;
50988;SDS011;37008;52.210;21.112;2023-05-10T03:53:20;7.95;;;4.70;;
50988;SDS011;37008;52.210;21.112;2023-05-10T03:55:47;10.10;;;4.47;;
50988;SDS011;37008;52.210;21.112;2023-05-10T03:58:13;10.18;;;5.38;;
50988;SDS011;37008;52.210;21.112;2023-05-10T04:00:38;8.38;;;4.60;;
50988;SDS011;37008;52.210;21.112;2023-05-10T04:03:09;7.47;;;4.20;;
50988;SDS011;37008;52.210;21.112;2023-05-10T04:05:35;9.52;;;4.95;;
50988;SDS011;37008;52.210;21.112;2023-05-10T04:08:01;13.85;;;5.10;;
50988;SDS011;37008;52.210;21.112;2023-05-10T04:10:27;10.57;;;4.40;;
50988;SDS011;37008;52.210;21.112;2023-05-10T04:12:53;9.93;;;4.30;;
50988;SDS011;37008;52.210;21.112;2023-05-10T04:15:18;11.90;;;5.22;;
50988;SDS011;37008;52.210;21.112;2023-05-10T04:17:44;6.93;;;4.35;;
50988;SDS011;37008;52.210;21.112;2023-05-10T04:20:10;7.13;;;5.00;;
50988;SDS011;37008;52.210;21.112;2023-05-10T04:22:36;8.48;;;4.22;;
50988;SDS011;37008;52.210;21.112;2023-05-10T04:25:02;8.95;;;4.88;;
50988;SDS011;37008;52.210;21.112;2023-05-10T04:27:28;12.20;;;5.05;;
50988;SDS011;37008;52.210;21.112;2023-05-10T04:29:53;7.57;;;4.28;;
50988;SDS011;37008;52.210;21.112;2023-05-10T04:32:19;8.70;;;4.43;;
50988;SDS011;37008;52.210;21.112;2023-05-10T04:34:45;6.63;;;4.70;;
50988;SDS011;37008;52.210;21.112;2023-05-10T04:37:11;19.08;;;5.10;;
50988;SDS011;37008;52.210;21.112;2023-05-10T04:39:36;6.70;;;4.78;;
50988;SDS011;37008;52.210;21.112;2023-05-10T04:42:02;8.77;;;4.85;;
50988;SDS011;37008;52.210;21.112;2023-05-10T04:44:28;8.05;;;3.90;;
50988;SDS011;37008;52.210;21.112;2023-05-10T04:46:54;10.38;;;4.63;;
50988;SDS011;37008;52.210;21.112;2023-05-10T04:49:20;8.25;;;4.47;;
50988;SDS011;37008;52.210;21.112;2023-05-10T04:51:46;7.93;;;3.92;;
50988;SDS011;37008;52.210;21.112;2023-05-10T04:54:12;10.45;;;4.63;;
50988;SDS011;37008;52.210;21.112;2023-05-10T04:56:37;6.30;;;4.55;;
50988;SDS011;37008;52.210;21.112;2023-05-10T04:59:03;9.52;;;3.80;;
50988;SDS011;37008;52.210;21.112;2023-05-10T05:01:29;7.95;;;4.60;;
50988;SDS011;37008;52.210;21.112;2023-05-10T05:03:54;10.27;;;4.05;;
50988;SDS011;37008;52.210;21.112;2023-05-10T05:06:20;11.00;;;3.90;;
50988;SDS011;37008;52.210;21.112;2023-05-10T05:08:46;9.85;;;4.22;;
50988;SDS011;37008;52.210;21.112;2023-05-10T05:11:11;16.83;;;4.97;;
50988;SDS011;37008;52.210;21.112;2023-05-10T05:13:37;8.15;;;4.07;;
50988;SDS011;37008;52.210;21.112;2023-05-10T05:16:02;13.18;;;5.18;;
50988;SDS011;37008;52.210;21.112;2023-05-10T05:18:28;20.45;;;7.75;;
50988;SDS011;37008;52.210;21.112;2023-05-10T05:20:54;18.55;;;6.38;;
50988;SDS011;37008;52.210;21.112;2023-05-10T05:23:19;15.43;;;4.90;;
50988;SDS011;37008;52.210;21.112;2023-05-10T05:25:49;10.02;;;4.63;;
50988;SDS011;37008;52.210;21.112;2023-05-10T05:28:18;13.57;;;6.38;;
50988;SDS011;37008;52.210;21.112;2023-05-10T05:30:45;11.75;;;4.68;;
50988;SDS011;37008;52.210;21.112;2023-05-10T05:33:11;13.88;;;4.40;;
50988;SDS011;37008;52.210;21.112;2023-05-10T05:35:37;8.80;;;3.58;;
50988;SDS011;37008;52.210;21.112;2023-05-10T05:38:03;5.85;;;3.80;;
50988;SDS011;37008;52.210;21.112;2023-05-10T05:40:29;13.10;;;3.97;;
50988;SDS011;37008;52.210;21.112;2023-05-10T05:42:54;5.38;;;3.53;;
50988;SDS011;37008;52.210;21.112;2023-05-10T05:45:20;7.18;;;3.72;;
50988;SDS011;37008;52.210;21.112;2023-05-10T05:47:46;11.30;;;3.33;;
50988;SDS011;37008;52.210;21.112;2023-05-10T05:50:12;5.03;;;3.08;;
50988;SDS011;37008;52.210;21.112;2023-05-10T05:52:38;9.75;;;4.25;;
50988;SDS011;37008;52.210;21.112;2023-05-10T05:55:03;9.60;;;3.75;;
50988;SDS011;37008;52.210;21.112;2023-05-10T05:57:29;7.18;;;2.92;;
50988;SDS011;37008;52.210;21.112;2023-05-10T05:59:55;7.20;;;2.88;;
50988;SDS011;37008;52.210;21.112;2023-05-10T06:02:21;7.40;;;3.20;;
50988;SDS011;37008;52.210;21.112;2023-05-10T06:04:46;6.25;;;3.08;;
50988;SDS011;37008;52.210;21.112;2023-05-10T06:07:12;13.90;;;3.33;;
50988;SDS011;37008;52.210;21.112;2023-05-10T06:09:38;10.55;;;3.25;;
50988;SDS011;37008;52.210;21.112;2023-05-10T06:12:03;8.00;;;3.17;;
50988;SDS011;37008;52.210;21.112;2023-05-10T06:14:29;8.70;;;2.97;;
50988;SDS011;37008;52.210;21.112;2023-05-10T06:16:54;11.70;;;3.03;;
50988;SDS011;37008;52.210;21.112;2023-05-10T06:19:20;6.38;;;3.58;;
50988;SDS011;37008;52.210;21.112;2023-05-10T06:21:45;10.75;;;3.22;;
50988;SDS011;37008;52.210;21.112;2023-05-10T06:24:11;6.70;;;3.10;;
50988;SDS011;37008;52.210;21.112;2023-05-10T06:26:37;6.03;;;2.75;;
50988;SDS011;37008;52.210;21.112;2023-05-10T06:29:02;11.57;;;3.28;;
50988;SDS011;37008;52.210;21.112;2023-05-10T06:31:28;8.35;;;2.80;;
50988;SDS011;37008;52.210;21.112;2023-05-10T06:33:53;13.88;;;2.80;;
50988;SDS011;37008;52.210;21.112;2023-05-10T06:36:19;11.93;;;2.72;;
50988;SDS011;37008;52.210;21.112;2023-05-10T06:38:45;9.07;;;2.45;;
50988;SDS011;37008;52.210;21.112;2023-05-10T06:41:11;11.63;;;2.85;;
50988;SDS011;37008;52.210;21.112;2023-05-10T06:43:37;5.20;;;2.42;;
50988;SDS011;37008;52.210;21.112;2023-05-10T06:46:06;5.47;;;2.50;;
50988;SDS011;37008;52.210;21.112;2023-05-10T06:48:32;7.63;;;2.50;;
50988;SDS011;37008;52.210;21.112;2023-05-10T06:50:57;7.25;;;2.42;;
50988;SDS011;37008;52.210;21.112;2023-05-10T06:53:23;8.25;;;2.75;;
50988;SDS011;37008;52.210;21.112;2023-05-10T06:55:49;5.75;;;2.30;;
50988;SDS011;37008;52.210;21.112;2023-05-10T06:58:14;5.75;;;2.25;;
50988;SDS011;37008;52.210;21.112;2023-05-10T07:00:40;15.10;;;2.58;;
50988;SDS011;37008;52.210;21.112;2023-05-10T07:03:08;5.82;;;2.22;;
50988;SDS011;37008;52.210;21.112;2023-05-10T07:05:34;9.70;;;2.33;;
50988;SDS011;37008;52.210;21.112;2023-05-10T07:08:00;7.22;;;2.58;;
50988;SDS011;37008;52.210;21.112;2023-05-10T07:10:26;11.43;;;2.05;;
50988;SDS011;37008;52.210;21.112;2023-05-10T07:12:52;6.80;;;2.17;;
50988;SDS011;37008;52.210;21.112;2023-05-10T07:15:17;10.35;;;2.08;;
50988;SDS011;37008;52.210;21.112;2023-05-10T07:17:43;6.15;;;2.08;;
50988;SDS011;37008;52.210;21.112;2023-05-10T07:20:08;5.10;;;2.00;;
50988;SDS011;37008;52.210;21.112;2023-05-10T07:22:34;5.72;;;1.90;;
50988;SDS011;37008;52.210;21.112;2023-05-10T07:25:00;4.10;;;2.00;;
50988;SDS011;37008;52.210;21.112;2023-05-10T07:27:26;3.83;;;2.05;;
50988;SDS011;37008;52.210;21.112;2023-05-10T07:29:51;5.38;;;2.03;;
50988;SDS011;37008;52.210;21.112;2023-05-10T07:32:17;4.97;;;1.85;;
50988;SDS011;37008;52.210;21.112;2023-05-10T07:34:42;4.00;;;1.88;;
50988;SDS011;37008;52.210;21.112;2023-05-10T07:37:08;5.88;;;1.90;;
50988;SDS011;37008;52.210;21.112;2023-05-10T07:39:33;4.20;;;1.85;;
50988;SDS011;37008;52.210;21.112;2023-05-10T07:41:59;8.90;;;2.10;;
50988;SDS011;37008;52.210;21.112;2023-05-10T07:44:25;15.80;;;3.15;;
50988;SDS011;37008;52.210;21.112;2023-05-10T07:46:50;8.13;;;2.08;;
50988;SDS011;37008;52.210;21.112;2023-05-10T07:49:17;8.52;;;2.05;;
50988;SDS011;37008;52.210;21.112;2023-05-10T07:51:42;7.93;;;2.03;;
50988;SDS011;37008;52.210;21.112;2023-05-10T07:54:08;8.70;;;1.73;;
50988;SDS011;37008;52.210;21.112;2023-05-10T07:56:33;12.98;;;2.25;;
50988;SDS011;37008;52.210;21.112;2023-05-10T07:59:00;7.32;;;1.90;;
50988;SDS011;37008;52.210;21.112;2023-05-10T08:01:27;9.80;;;2.20;;
50988;SDS011;37008;52.210;21.112;2023-05-10T08:03:55;8.00;;;2.45;;
50988;SDS011;37008;52.210;21.112;2023-05-10T08:06:21;7.45;;;1.80;;
50988;SDS011;37008;52.210;21.112;2023-05-10T08:08:47;9.43;;;2.00;;
50988;SDS011;37008;52.210;21.112;2023-05-10T08:11:18;5.82;;;1.75;;
50988;SDS011;37008;52.210;21.112;2023-05-10T08:13:47;5.88;;;1.70;;
50988;SDS011;37008;52.210;21.112;2023-05-10T08:16:13;9.90;;;2.08;;
50988;SDS011;37008;52.210;21.112;2023-05-10T08:18:39;8.20;;;1.70;;
50988;SDS011;37008;52.210;21.112;2023-05-10T08:21:05;6.60;;;2.35;;
50988;SDS011;37008;52.210;21.112;2023-05-10T08:23:31;12.10;;;2.10;;
50988;SDS011;37008;52.210;21.112;2023-05-10T08:25:57;6.07;;;2.00;;
50988;SDS011;37008;52.210;21.112;2023-05-10T08:28:22;4.50;;;1.60;;
50988;SDS011;37008;52.210;21.112;2023-05-10T08:30:49;5.05;;;1.70;;
50988;SDS011;37008;52.210;21.112;2023-05-10T08:33:15;7.10;;;1.92;;
50988;SDS011;37008;52.210;21.112;2023-05-10T08:35:40;11.38;;;1.85;;
50988;SDS011;37008;52.210;21.112;2023-05-10T08:38:06;6.30;;;1.85;;
50988;SDS011;37008;52.210;21.112;2023-05-10T08:40:32;2.85;;;1.33;;
50988;SDS011;37008;52.210;21.112;2023-05-10T08:43:08;4.50;;;1.90;;
50988;SDS011;37008;52.210;21.112;2023-05-10T08:45:39;7.57;;;2.05;;
50988;SDS011;37008;52.210;21.112;2023-05-10T08:48:06;5.05;;;2.15;;
50988;SDS011;37008;52.210;21.112;2023-05-10T08:50:37;7.72;;;1.88;;
50988;SDS011;37008;52.210;21.112;2023-05-10T08:53:04;6.90;;;2.03;;
50988;SDS011;37008;52.210;21.112;2023-05-10T08:55:37;9.65;;;2.58;;
50988;SDS011;37008;52.210;21.112;2023-05-10T08:58:04;4.65;;;1.70;;
50988;SDS011;37008;52.210;21.112;2023-05-10T09:00:30;11.88;;;1.92;;
50988;SDS011;37008;52.210;21.112;2023-05-10T09:02:59;7.93;;;2.13;;
50988;SDS011;37008;52.210;21.112;2023-05-10T09:05:26;6.95;;;2.05;;
50988;SDS011;37008;52.210;21.112;2023-05-10T09:07:52;9.57;;;2.22;;
50988;SDS011;37008;52.210;21.112;2023-05-10T09:10:18;10.20;;;2.10;;
50988;SDS011;37008;52.210;21.112;2023-05-10T09:12:44;6.50;;;2.20;;
50988;SDS011;37008;52.210;21.112;2023-05-10T09:15:11;3.90;;;1.98;;
50988;SDS011;37008;52.210;21.112;2023-05-10T09:17:39;4.88;;;2.13;;
50988;SDS011;37008;52.210;21.112;2023-05-10T09:20:06;7.72;;;2.17;;
50988;SDS011;37008;52.210;21.112;2023-05-10T09:22:32;3.53;;;2.00;;
50988;SDS011;37008;52.210;21.112;2023-05-10T09:25:14;10.50;;;2.15;;
50988;SDS011;37008;52.210;21.112;2023-05-10T09:27:41;7.10;;;2.03;;
50988;SDS011;37008;52.210;21.112;2023-05-10T09:30:10;8.25;;;2.08;;
50988;SDS011;37008;52.210;21.112;2023-05-10T09:32:44;4.28;;;1.92;;
50988;SDS011;37008;52.210;21.112;2023-05-10T09:37:41;5.95;;;2.33;;
50988;SDS011;37008;52.210;21.112;2023-05-10T09:40:15;7.45;;;2.22;;
50988;SDS011;37008;52.210;21.112;2023-05-10T09:42:50;4.55;;;1.90;;
50988;SDS011;37008;52.210;21.112;2023-05-10T09:50:10;6.50;;;1.83;;
50988;SDS011;37008;52.210;21.112;2023-05-10T09:52:45;4.30;;;2.35;;
50988;SDS011;37008;52.210;21.112;2023-05-10T09:55:18;7.82;;;2.20;;
50988;SDS011;37008;52.210;21.112;2023-05-10T09:57:46;8.43;;;1.83;;
50988;SDS011;37008;52.210;21.112;2023-05-10T10:00:16;6.60;;;1.70;;
50988;SDS011;37008;52.210;21.112;2023-05-10T10:02:44;7.43;;;2.15;;
50988;SDS011;37008;52.210;21.112;2023-05-10T10:05:19;10.65;;;2.15;;
50988;SDS011;37008;52.210;21.112;2023-05-10T10:07:44;8.90;;;2.42;;
50988;SDS011;37008;52.210;21.112;2023-05-10T10:10:10;7.80;;;2.80;;
50988;SDS011;37008;52.210;21.112;2023-05-10T10:12:38;17.40;;;2.35;;
50988;SDS011;37008;52.210;21.112;2023-05-10T10:15:07;10.85;;;1.90;;
50988;SDS011;37008;52.210;21.112;2023-05-10T10:17:35;3.30;;;1.67;;
50988;SDS011;37008;52.210;21.112;2023-05-10T10:20:03;7.53;;;2.03;;
50988;SDS011;37008;52.210;21.112;2023-05-10T10:22:28;4.32;;;1.80;;
50988;SDS011;37008;52.210;21.112;2023-05-10T10:24:54;8.90;;;1.80;;
50988;SDS011;37008;52.210;21.112;2023-05-10T10:27:24;9.27;;;2.03;;
50988;SDS011;37008;52.210;21.112;2023-05-10T10:32:42;7.15;;;1.65;;
50988;SDS011;37008;52.210;21.112;2023-05-10T10:35:16;5.60;;;2.03;;
50988;SDS011;37008;52.210;21.112;2023-05-10T10:37:45;5.65;;;1.67;;
50988;SDS011;37008;52.210;21.112;2023-05-10T10:42:54;6.57;;;1.88;;
50988;SDS011;37008;52.210;21.112;2023-05-10T10:45:21;7.22;;;1.70;;
50988;SDS011;37008;52.210;21.112;2023-05-10T10:47:47;5.97;;;2.00;;
50988;SDS011;37008;52.210;21.112;2023-05-10T10:50:13;5.10;;;1.95;;
50988;SDS011;37008;52.210;21.112;2023-05-10T10:52:41;9.48;;;2.10;;
50988;SDS011;37008;52.210;21.112;2023-05-10T10:55:08;7.85;;;2.20;;
50988;SDS011;37008;52.210;21.112;2023-05-10T10:57:52;6.35;;;2.00;;
50988;SDS011;37008;52.210;21.112;2023-05-10T11:00:28;9.60;;;2.13;;
50988;SDS011;37008;52.210;21.112;2023-05-10T11:02:59;5.32;;;1.65;;
50988;SDS011;37008;52.210;21.112;2023-05-10T11:05:35;8.82;;;1.92;;
50988;SDS011;37008;52.210;21.112;2023-05-10T11:10:37;10.38;;;2.08;;
50988;SDS011;37008;52.210;21.112;2023-05-10T11:13:07;7.32;;;1.90;;
50988;SDS011;37008;52.210;21.112;2023-05-10T11:15:35;5.43;;;1.65;;
50988;SDS011;37008;52.210;21.112;2023-05-10T11:20:59;7.45;;;1.92;;
50988;SDS011;37008;52.210;21.112;2023-05-10T11:26:08;4.57;;;2.17;;
50988;SDS011;37008;52.210;21.112;2023-05-10T11:28:42;15.32;;;2.03;;
50988;SDS011;37008;52.210;21.112;2023-05-10T11:31:09;5.70;;;1.70;;
50988;SDS011;37008;52.210;21.112;2023-05-10T11:33:45;7.65;;;1.90;;
50988;SDS011;37008;52.210;21.112;2023-05-10T11:36:18;8.40;;;1.92;;
50988;SDS011;37008;52.210;21.112;2023-05-10T11:38:55;10.13;;;1.80;;
50988;SDS011;37008;52.210;21.112;2023-05-10T11:41:22;7.65;;;1.63;;
50988;SDS011;37008;52.210;21.112;2023-05-10T11:43:54;10.40;;;2.25;;
50988;SDS011;37008;52.210;21.112;2023-05-10T11:46:21;7.78;;;2.20;;
50988;SDS011;37008;52.210;21.112;2023-05-10T11:48:50;5.72;;;2.40;;
50988;SDS011;37008;52.210;21.112;2023-05-10T11:51:20;10.52;;;2.38;;
50988;SDS011;37008;52.210;21.112;2023-05-10T11:53:50;20.55;;;2.63;;
50988;SDS011;37008;52.210;21.112;2023-05-10T11:56:17;12.98;;;2.58;;
50988;SDS011;37008;52.210;21.112;2023-05-10T11:58:43;7.68;;;1.85;;
50988;SDS011;37008;52.210;21.112;2023-05-10T12:01:09;6.05;;;1.90;;
50988;SDS011;37008;52.210;21.112;2023-05-10T12:03:35;5.90;;;2.00;;
50988;SDS011;37008;52.210;21.112;2023-05-10T12:06:02;9.98;;;2.10;;
50988;SDS011;37008;52.210;21.112;2023-05-10T12:08:29;6.90;;;2.08;;
50988;SDS011;37008;52.210;21.112;2023-05-10T12:11:05;8.50;;;2.13;;
50988;SDS011;37008;52.210;21.112;2023-05-10T12:13:32;8.23;;;1.70;;
50988;SDS011;37008;52.210;21.112;2023-05-10T12:16:11;20.23;;;2.83;;
50988;SDS011;37008;52.210;21.112;2023-05-10T12:18:48;4.57;;;1.88;;
50988;SDS011;37008;52.210;21.112;2023-05-10T12:21:18;7.30;;;2.08;;
50988;SDS011;37008;52.210;21.112;2023-05-10T12:23:49;7.15;;;2.08;;
50988;SDS011;37008;52.210;21.112;2023-05-10T12:26:16;8.73;;;1.95;;
50988;SDS011;37008;52.210;21.112;2023-05-10T12:28:41;6.30;;;1.90;;
50988;SDS011;37008;52.210;21.112;2023-05-10T12:31:08;6.28;;;1.83;;
50988;SDS011;37008;52.210;21.112;2023-05-10T12:33:37;4.30;;;1.58;;
50988;SDS011;37008;52.210;21.112;2023-05-10T12:36:04;7.43;;;2.05;;
50988;SDS011;37008;52.210;21.112;2023-05-10T12:38:35;4.93;;;1.50;;
50988;SDS011;37008;52.210;21.112;2023-05-10T12:41:06;8.57;;;2.10;;
50988;SDS011;37008;52.210;21.112;2023-05-10T12:43:34;7.55;;;1.90;;
50988;SDS011;37008;52.210;21.112;2023-05-10T12:48:36;8.85;;;1.90;;
50988;SDS011;37008;52.210;21.112;2023-05-10T12:51:03;8.68;;;2.30;;
50988;SDS011;37008;52.210;21.112;2023-05-10T12:53:29;7.10;;;2.10;;
50988;SDS011;37008;52.210;21.112;2023-05-10T12:55:55;8.43;;;1.88;;
50988;SDS011;37008;52.210;21.112;2023-05-10T12:58:21;6.57;;;1.65;;
50988;SDS011;37008;52.210;21.112;2023-05-10T13:00:47;8.02;;;2.10;;
50988;SDS011;37008;52.210;21.112;2023-05-10T13:03:12;7.80;;;1.65;;
50988;SDS011;37008;52.210;21.112;2023-05-10T13:05:38;3.58;;;1.70;;
50988;SDS011;37008;52.210;21.112;2023-05-10T13:08:04;6.13;;;1.83;;
50988;SDS011;37008;52.210;21.112;2023-05-10T13:10:30;6.60;;;2.28;;
50988;SDS011;37008;52.210;21.112;2023-05-10T13:12:56;6.75;;;2.13;;
50988;SDS011;37008;52.210;21.112;2023-05-10T13:15:25;5.63;;;2.15;;
50988;SDS011;37008;52.210;21.112;2023-05-10T13:17:51;6.45;;;2.08;;
50988;SDS011;37008;52.210;21.112;2023-05-10T13:20:18;4.45;;;2.20;;
50988;SDS011;37008;52.210;21.112;2023-05-10T13:22:43;7.82;;;2.35;;
50988;SDS011;37008;52.210;21.112;2023-05-10T13:25:10;12.48;;;2.03;;
50988;SDS011;37008;52.210;21.112;2023-05-10T13:27:36;11.90;;;2.13;;
50988;SDS011;37008;52.210;21.112;2023-05-10T13:30:03;4.65;;;1.92;;
50988;SDS011;37008;52.210;21.112;2023-05-10T13:32:29;5.20;;;1.80;;
50988;SDS011;37008;52.210;21.112;2023-05-10T13:34:55;4.57;;;1.80;;
50988;SDS011;37008;52.210;21.112;2023-05-10T13:37:21;5.20;;;1.70;;
50988;SDS011;37008;52.210;21.112;2023-05-10T13:39:47;15.18;;;1.90;;
50988;SDS011;37008;52.210;21.112;2023-05-10T13:42:13;4.43;;;1.67;;
50988;SDS011;37008;52.210;21.112;2023-05-10T13:44:39;12.98;;;2.03;;
50988;SDS011;37008;52.210;21.112;2023-05-10T13:47:05;10.43;;;1.90;;
50988;SDS011;37008;52.210;21.112;2023-05-10T13:49:30;2.95;;;1.73;;
50988;SDS011;37008;52.210;21.112;2023-05-10T13:51:56;9.05;;;2.13;;
50988;SDS011;37008;52.210;21.112;2023-05-10T13:54:22;6.90;;;1.67;;
50988;SDS011;37008;52.210;21.112;2023-05-10T14:00:10;4.50;;;1.73;;
50988;SDS011;37008;52.210;21.112;2023-05-10T14:02:36;6.70;;;1.80;;
50988;SDS011;37008;52.210;21.112;2023-05-10T14:05:03;8.68;;;2.45;;
50988;SDS011;37008;52.210;21.112;2023-05-10T14:07:29;5.30;;;2.08;;
50988;SDS011;37008;52.210;21.112;2023-05-10T14:09:55;2.60;;;1.70;;
50988;SDS011;37008;52.210;21.112;2023-05-10T14:12:21;3.10;;;1.50;;
50988;SDS011;37008;52.210;21.112;2023-05-10T14:14:46;7.15;;;1.48;;
50988;SDS011;37008;52.210;21.112;2023-05-10T14:17:12;3.78;;;1.70;;
50988;SDS011;37008;52.210;21.112;2023-05-10T14:19:37;4.03;;;1.85;;
50988;SDS011;37008;52.210;21.112;2023-05-10T14:22:03;7.07;;;2.20;;
50988;SDS011;37008;52.210;21.112;2023-05-10T14:24:29;6.35;;;2.45;;
50988;SDS011;37008;52.210;21.112;2023-05-10T14:26:54;12.18;;;1.80;;
50988;SDS011;37008;52.210;21.112;2023-05-10T14:29:20;5.32;;;2.10;;
50988;SDS011;37008;52.210;21.112;2023-05-10T14:31:47;5.32;;;1.73;;
50988;SDS011;37008;52.210;21.112;2023-05-10T14:34:12;4.70;;;1.88;;
50988;SDS011;37008;52.210;21.112;2023-05-10T14:36:38;3.70;;;1.50;;
50988;SDS011;37008;52.210;21.112;2023-05-10T14:39:04;10.05;;;2.35;;
50988;SDS011;37008;52.210;21.112;2023-05-10T14:41:30;7.43;;;1.60;;
50988;SDS011;37008;52.210;21.112;2023-05-10T14:43:55;9.23;;;1.90;;
50988;SDS011;37008;52.210;21.112;2023-05-10T14:46:21;6.43;;;1.92;;
50988;SDS011;37008;52.210;21.112;2023-05-10T14:48:47;6.07;;;2.17;;
50988;SDS011;37008;52.210;21.112;2023-05-10T14:51:12;7.43;;;1.90;;
50988;SDS011;37008;52.210;21.112;2023-05-10T14:57:00;6.18;;;1.77;;
50988;SDS011;37008;52.210;21.112;2023-05-10T14:59:28;9.57;;;1.60;;
50988;SDS011;37008;52.210;21.112;2023-05-10T15:01:54;6.10;;;1.83;;
50988;SDS011;37008;52.210;21.112;2023-05-10T15:04:19;4.55;;;1.42;;
50988;SDS011;37008;52.210;21.112;2023-05-10T15:06:46;4.25;;;1.92;;
50988;SDS011;37008;52.210;21.112;2023-05-10T15:09:11;4.20;;;1.70;;
50988;SDS011;37008;52.210;21.112;2023-05-10T15:11:37;6.57;;;1.65;;
50988;SDS011;37008;52.210;21.112;2023-05-10T15:14:03;5.80;;;1.90;;
50988;SDS011;37008;52.210;21.112;2023-05-10T15:16:28;4.00;;;1.88;;
50988;SDS011;37008;52.210;21.112;2023-05-10T15:18:54;9.23;;;1.70;;